Latest Weather Observations for Melville Water

IDW60801

Issued at 4:32 am WST Monday 2 March 2015 (issued every 30 minutes, with the page automatically refreshed every 10 minutes)

About weather observations | Map of weather stations | Latest weather observations for WA | Other Formats
Station Details ID: 009091 Name: INNER DOLPHIN PYLON Lat: -31.99 Lon: 115.83 Height: 0.0 m
Data from the previous 72 hours. | See also: Recent months for locations in Western Australia
Date/Time
WST
Temp
°C
App
Temp
°C
Dew
Point
Rel
Hum
%
Delta-T
°C
Wind Press
QNH
hPa
Press
MSL
hPa
Rain
since 9 am
mm
Dir
 
Spd
km/h
Gust
km/h
Spd
kts
Gust
kts
02/04:30am - - - - - SSE 22 28 12 15 - - -
02/04:00am - - - - - SSE 20 28 11 15 - - -
02/03:30am - - - - - SE 32 43 17 23 - - -
02/03:00am - - - - - SE 30 39 16 21 - - -
02/02:30am - - - - - SE 26 33 14 18 - - -
02/02:00am - - - - - SE 33 48 18 26 - - -
02/01:30am - - - - - SE 33 44 18 24 - - -
02/01:00am - - - - - SE 32 43 17 23 - - -
02/12:30am - - - - - SE 28 39 15 21 - - -
02/12:00am - - - - - SE 26 35 14 19 - - -
 
Date/Time
WST
Temp
°C
App
Temp
°C
Dew
Point
Rel
Hum
%
Delta-T
°C
Wind Press
QNH
hPa
Press
MSL
hPa
Rain
since 9 am
mm
Dir
 
Spd
km/h
Gust
km/h
Spd
kts
Gust
kts
01/11:44pm - - - - - SE 28 46 15 25 - - -
01/11:30pm - - - - - SE 35 44 19 24 - - -
01/11:00pm - - - - - SE 32 43 17 23 - - -
01/10:30pm - - - - - SE 35 46 19 25 - - -
01/10:00pm - - - - - SE 39 50 21 27 - - -
01/09:47pm - - - - - SE 33 44 18 24 - - -
01/09:30pm - - - - - ESE 26 43 14 23 - - -
01/09:00pm - - - - - ESE 17 19 9 10 - - -
01/08:30pm - - - - - SE 11 15 6 8 - - -
01/08:00pm - - - - - SSW 11 17 6 9 - - -
01/07:30pm - - - - - SSW 26 30 14 16 - - -
01/07:00pm - - - - - SSW 24 32 13 17 - - -
01/06:30pm - - - - - SSW 32 41 17 22 - - -
01/06:00pm - - - - - SSW 33 46 18 25 - - -
01/05:30pm - - - - - SSW 33 41 18 22 - - -
01/05:00pm - - - - - SSW 33 44 18 24 - - -
01/04:30pm - - - - - SW 35 41 19 22 - - -
01/04:00pm - - - - - SSW 39 48 21 26 - - -
01/03:30pm - - - - - SW 37 43 20 23 - - -
01/03:00pm - - - - - SW 33 41 18 22 - - -
01/02:30pm - - - - - SW 28 35 15 19 - - -
01/02:00pm - - - - - SW 28 37 15 20 - - -
01/01:30pm - - - - - WSW 19 24 10 13 - - -
01/01:00pm - - - - - WSW 22 26 12 14 - - -
01/12:30pm - - - - - WSW 6 17 3 9 - - -
01/12:00pm - - - - - NNW 4 6 2 3 - - -
01/11:30am - - - - - N 7 11 4 6 - - -
01/11:00am - - - - - NNE 6 9 3 5 - - -
01/10:30am - - - - - E 7 13 4 7 - - -
01/10:00am - - - - - SSE 11 19 6 10 - - -
01/09:30am - - - - - SE 17 22 9 12 - - -
01/09:00am - - - - - ESE 19 24 10 13 - - -
01/08:30am - - - - - ESE 20 28 11 15 - - -
01/08:00am - - - - - ESE 20 32 11 17 - - -
01/07:30am - - - - - SE 20 26 11 14 - - -
01/07:00am - - - - - ESE 24 35 13 19 - - -
01/06:30am - - - - - ESE 24 33 13 18 - - -
01/06:00am - - - - - ESE 26 32 14 17 - - -
01/05:30am - - - - - ESE 30 39 16 21 - - -
01/05:00am - - - - - ESE 30 35 16 19 - - -
01/04:30am - - - - - SE 24 30 13 16 - - -
01/04:00am - - - - - ESE 24 33 13 18 - - -
01/03:30am - - - - - ESE 26 35 14 19 - - -
01/03:00am - - - - - ESE 24 35 13 19 - - -
01/02:30am - - - - - ESE 24 35 13 19 - - -
01/02:00am - - - - - ESE 28 37 15 20 - - -
01/01:30am - - - - - ESE 26 39 14 21 - - -
01/01:00am - - - - - ESE 26 39 14 21 - - -
01/12:30am - - - - - ESE 28 41 15 22 - - -
01/12:00am - - - - - ESE 28 39 15 21 - - -
 
Date/Time
WST
Temp
°C
App
Temp
°C
Dew
Point
Rel
Hum
%
Delta-T
°C
Wind Press
QNH
hPa
Press
MSL
hPa
Rain
since 9 am
mm
Dir
 
Spd
km/h
Gust
km/h
Spd
kts
Gust
kts
28/11:50pm - - - - - ESE 20 39 11 21 - - -
28/11:30pm - - - - - SE 13 20 7 11 - - -
28/11:00pm - - - - - SSE 9 13 5 7 - - -
28/10:30pm - - - - - S 7 13 4 7 - - -
28/10:00pm - - - - - SSW 7 11 4 6 - - -
28/09:30pm - - - - - S 9 13 5 7 - - -
28/09:00pm - - - - - S 11 17 6 9 - - -
28/08:30pm - - - - - S 9 13 5 7 - - -
28/08:00pm - - - - - SSW 20 26 11 14 - - -
28/07:30pm - - - - - SSW 26 32 14 17 - - -
28/07:00pm - - - - - SSW 33 41 18 22 - - -
28/06:30pm - - - - - SSW 33 41 18 22 - - -
28/06:00pm - - - - - SW 32 39 17 21 - - -
28/05:30pm - - - - - SW 30 35 16 19 - - -
28/05:00pm - - - - - SW 32 37 17 20 - - -
28/04:30pm - - - - - SW 30 37 16 20 - - -
28/04:00pm - - - - - SW 32 37 17 20 - - -
28/03:30pm - - - - - SW 30 35 16 19 - - -
28/03:00pm - - - - - WSW 26 32 14 17 - - -
28/02:30pm - - - - - WSW 11 24 6 13 - - -
28/02:00pm - - - - - SSW 6 22 3 12 - - -
28/01:30pm - - - - - SSE 9 22 5 12 - - -
28/01:00pm - - - - - SE 11 19 6 10 - - -
28/12:30pm - - - - - SE 9 24 5 13 - - -
28/12:00pm - - - - - SSE 13 24 7 13 - - -
28/11:30am - - - - - SSE 17 26 9 14 - - -
28/11:00am - - - - - SE 20 28 11 15 - - -
28/10:30am - - - - - SE 19 30 10 16 - - -
28/10:00am - - - - - SE 20 28 11 15 - - -
28/09:30am - - - - - ESE 22 33 12 18 - - -
28/09:00am - - - - - SE 19 24 10 13 - - -
28/08:30am - - - - - ESE 24 32 13 17 - - -
28/08:00am - - - - - SE 22 30 12 16 - - -
28/07:30am - - - - - SE 24 37 13 20 - - -
28/07:00am - - - - - ESE 22 32 12 17 - - -
28/06:30am - - - - - SE 19 22 10 12 - - -
28/06:00am - - - - - SE 22 32 12 17 - - -
28/05:30am - - - - - SSE 20 28 11 15 - - -
28/05:00am - - - - - SSE 24 32 13 17 - - -
28/04:30am - - - - - SE 22 32 12 17 - - -
28/04:00am - - - - - SE 22 30 12 16 - - -
28/03:30am - - - - - SSE 19 28 10 15 - - -
28/03:00am - - - - - SSE 20 26 11 14 - - -
28/02:30am - - - - - SSE 19 24 10 13 - - -
28/02:00am - - - - - SSE 19 24 10 13 - - -
28/01:30am - - - - - SSE 20 28 11 15 - - -
28/01:00am - - - - - S 20 26 11 14 - - -
28/12:30am - - - - - S 20 26 11 14 - - -
28/12:00am - - - - - S 20 26 11 14 - - -
 
Date/Time
WST
Temp
°C
App
Temp
°C
Dew
Point
Rel
Hum
%
Delta-T
°C
Wind Press
QNH
hPa
Press
MSL
hPa
Rain
since 9 am
mm
Dir
 
Spd
km/h
Gust
km/h
Spd
kts
Gust
kts
27/11:30pm - - - - - S 19 26 10 14 - - -
27/11:00pm - - - - - S 20 26 11 14 - - -
27/10:30pm - - - - - S 17 24 9 13 - - -
27/10:00pm - - - - - S 19 24 10 13 - - -
27/09:30pm - - - - - SSW 17 24 9 13 - - -
27/09:00pm - - - - - SSW 20 24 11 13 - - -
27/08:30pm - - - - - SSW 26 33 14 18 - - -
27/08:00pm - - - - - SSW 30 39 16 21 - - -
27/07:30pm - - - - - SSW 28 39 15 21 - - -
27/07:00pm - - - - - SSW 33 43 18 23 - - -
27/06:30pm - - - - - SW 33 41 18 22 - - -
27/06:00pm - - - - - SSW 35 43 19 23 - - -
27/05:30pm - - - - - SW 35 43 19 23 - - -
27/05:00pm - - - - - SSW 37 46 20 25 - - -
27/04:30pm - - - - - SW 35 44 19 24 - - -
27/04:00pm - - - - - SW 33 43 18 23 - - -
27/03:30pm - - - - - SW 35 43 19 23 - - -
27/03:00pm - - - - - SW 33 44 18 24 - - -
27/02:30pm - - - - - SW 37 46 20 25 - - -
27/02:00pm - - - - - SW 35 46 19 25 - - -
27/01:30pm - - - - - SW 33 43 18 23 - - -
27/01:00pm - - - - - SW 37 44 20 24 - - -
27/12:30pm - - - - - SW 35 46 19 25 - - -
27/12:00pm - - - - - SW 33 43 18 23 - - -
27/11:30am - - - - - SW 32 41 17 22 - - -
27/11:00am - - - - - SW 32 39 17 21 - - -
27/10:30am - - - - - SW 32 41 17 22 - - -
27/10:00am - - - - - SW 33 41 18 22 - - -
27/09:30am - - - - - SW 35 43 19 23 - - -
27/09:00am - - - - - SW 32 39 17 21 - - -
27/08:30am - - - - - SSW 35 44 19 24 - - -
27/08:00am - - - - - SW 30 39 16 21 - - -
27/07:30am - - - - - SW 32 39 17 21 - - -
27/07:00am - - - - - SW 33 39 18 21 - - -
27/06:30am - - - - - SW 24 32 13 17 - - -
27/06:00am - - - - - SW 13 17 7 9 - - -
27/05:30am - - - - - SW 17 22 9 12 - - -
27/05:00am - - - - - SSW 22 30 12 16 - - -

Other Formats:

Comma delimited format used in spreadsheet applications
http://www.bom.gov.au/fwo/IDW60801/IDW60801.95620.axf

JavaScript Object Notation format (JSON) in row-major order
http://www.bom.gov.au/fwo/IDW60801/IDW60801.95620.json